createdAt,value
2022-12-13T00:00:00.714Z,-3.20
2022-12-13T00:02:30.671Z,-3.30
2022-12-13T00:04:59.423Z,-3.30
2022-12-13T00:07:27.944Z,-3.20
2022-12-13T00:09:56.393Z,-3.30
2022-12-13T00:12:24.894Z,-3.30
2022-12-13T00:14:53.943Z,-3.30
2022-12-13T00:17:22.818Z,-3.30
2022-12-13T00:19:52.743Z,-3.30
2022-12-13T00:22:21.793Z,-3.30
2022-12-13T00:24:50.302Z,-3.30
2022-12-13T00:27:18.733Z,-3.20
2022-12-13T00:29:47.275Z,-3.20
2022-12-13T00:32:15.857Z,-3.20
2022-12-13T00:34:44.383Z,-3.20
2022-12-13T00:37:14.332Z,-3.10
2022-12-13T00:39:42.954Z,-3.10
2022-12-13T00:42:11.441Z,-3.10
2022-12-13T00:44:40.093Z,-3.10
2022-12-13T00:47:08.676Z,-3.10
2022-12-13T00:49:37.233Z,-3.10
2022-12-13T00:52:06.552Z,-3.00
2022-12-13T00:54:36.702Z,-3.00
2022-12-13T00:57:05.428Z,-3.00
2022-12-13T00:59:34.360Z,-3.00
2022-12-13T01:02:02.882Z,-3.00
2022-12-13T01:04:31.462Z,-3.00
2022-12-13T01:07:00.003Z,-3.00
2022-12-13T01:09:31.169Z,-3.00
2022-12-13T01:12:03.412Z,-3.00
2022-12-13T01:14:32.151Z,-3.00
2022-12-13T01:17:00.838Z,-3.10
2022-12-13T01:19:29.857Z,-3.10
2022-12-13T01:21:59.997Z,-3.10
2022-12-13T01:24:28.655Z,-3.20
2022-12-13T01:26:57.632Z,-3.20
2022-12-13T01:29:28.534Z,-3.30
2022-12-13T01:31:57.213Z,-3.20
2022-12-13T01:34:27.608Z,-3.30
2022-12-13T01:36:58.288Z,-3.30
2022-12-13T01:39:28.109Z,-3.30
2022-12-13T01:42:00.132Z,-3.30
2022-12-13T01:45:08.302Z,-3.20
2022-12-13T01:47:43.693Z,-3.20
2022-12-13T01:50:16.713Z,-3.20
2022-12-13T01:52:46.563Z,-3.10
2022-12-13T01:55:17.831Z,-3.00
2022-12-13T01:57:48.853Z,-3.00
2022-12-13T02:00:19.262Z,-2.90
2022-12-13T02:02:50.291Z,-2.90
2022-12-13T02:05:26.245Z,-2.80
2022-12-13T02:07:55.248Z,-2.80
2022-12-13T02:10:23.893Z,-2.80
2022-12-13T02:12:52.592Z,-2.80
2022-12-13T02:15:22.309Z,-2.80
2022-12-13T02:18:18.533Z,-2.80
2022-12-13T02:21:09.523Z,-2.70
2022-12-13T02:24:17.510Z,-2.70
2022-12-13T02:27:12.505Z,-2.70
2022-12-13T02:30:16.751Z,-2.70
2022-12-13T02:32:56.832Z,-2.70
2022-12-13T02:35:29.489Z,-2.70
2022-12-13T02:38:04.777Z,-2.60
2022-12-13T02:40:36.602Z,-2.60
2022-12-13T02:43:10.193Z,-2.50
2022-12-13T02:45:45.743Z,-2.60
2022-12-13T02:48:19.813Z,-2.50
2022-12-13T02:50:49.772Z,-2.40
2022-12-13T02:53:21.452Z,-2.40
2022-12-13T02:55:50.439Z,-2.40
2022-12-13T02:58:26.072Z,-2.50
2022-12-13T03:01:06.589Z,-2.50
2022-12-13T03:04:07.876Z,-2.60
2022-12-13T03:06:46.555Z,-2.60
2022-12-13T03:09:28.281Z,-2.60
2022-12-13T03:12:37.671Z,-2.70
2022-12-13T03:15:18.161Z,-2.70
2022-12-13T03:17:51.444Z,-2.70
2022-12-13T03:20:25.913Z,-2.80
2022-12-13T03:22:55.542Z,-2.80
2022-12-13T03:25:32.145Z,-2.80
2022-12-13T03:28:04.371Z,-2.90
2022-12-13T03:30:34.574Z,-3.00
2022-12-13T03:33:03.526Z,-3.10
2022-12-13T03:35:34.733Z,-3.20
2022-12-13T03:38:22.613Z,-3.30
2022-12-13T03:40:54.305Z,-3.30
2022-12-13T03:43:23.363Z,-3.40
2022-12-13T03:45:52.662Z,-3.40
2022-12-13T03:48:23.019Z,-3.50
2022-12-13T03:50:54.961Z,-3.60
2022-12-13T03:53:33.164Z,-3.70
2022-12-13T03:56:04.015Z,-3.80
2022-12-13T03:58:36.134Z,-3.80
2022-12-13T04:01:07.529Z,-3.80
2022-12-13T04:03:37.006Z,-3.70
2022-12-13T04:06:08.020Z,-3.70
2022-12-13T04:08:37.506Z,-3.60
2022-12-13T04:11:30.100Z,-3.60
2022-12-13T04:13:57.630Z,-3.70
2022-12-13T04:16:26.297Z,-3.70
2022-12-13T04:18:54.821Z,-3.80
2022-12-13T04:21:24.729Z,-3.80
2022-12-13T04:23:53.249Z,-3.70
2022-12-13T04:26:21.800Z,-3.70
2022-12-13T04:28:54.521Z,-3.60
2022-12-13T04:31:23.827Z,-3.60
2022-12-13T04:33:53.220Z,-3.70
2022-12-13T04:36:31.856Z,-3.70
2022-12-13T04:39:03.472Z,-3.70
2022-12-13T04:41:51.742Z,-3.70
2022-12-13T04:44:28.208Z,-3.70
2022-12-13T04:47:00.946Z,-3.70
2022-12-13T04:49:30.354Z,-3.80
2022-12-13T04:52:01.343Z,-3.80
2022-12-13T04:54:36.049Z,-3.80
2022-12-13T04:57:09.883Z,-3.70
2022-12-13T04:59:42.419Z,-3.70
2022-12-13T05:02:11.674Z,-3.70
2022-12-13T05:04:40.379Z,-3.60
2022-12-13T05:07:08.980Z,-3.50
2022-12-13T05:09:42.117Z,-3.50
2022-12-13T05:12:21.993Z,-3.40
2022-12-13T05:14:51.603Z,-3.40
2022-12-13T05:17:20.655Z,-3.30
2022-12-13T05:19:49.088Z,-3.20
2022-12-13T05:22:20.721Z,-3.20
2022-12-13T05:24:52.126Z,-3.20
2022-12-13T05:27:24.641Z,-3.20
2022-12-13T05:30:03.788Z,-3.10
2022-12-13T05:32:42.776Z,-3.10
2022-12-13T05:35:14.597Z,-3.10
2022-12-13T05:37:53.698Z,-3.00
2022-12-13T05:40:24.735Z,-3.00
2022-12-13T05:43:00.849Z,-2.90
2022-12-13T05:45:30.957Z,-2.80
2022-12-13T05:48:00.011Z,-2.80
2022-12-13T05:50:28.529Z,-2.80
2022-12-13T05:52:57.210Z,-2.80
2022-12-13T05:55:27.130Z,-2.80
2022-12-13T05:57:55.663Z,-2.80
2022-12-13T06:00:31.296Z,-2.80
2022-12-13T06:03:01.457Z,-2.80
2022-12-13T06:05:30.569Z,-2.70
2022-12-13T06:07:59.598Z,-2.70
2022-12-13T06:10:35.103Z,-2.70
2022-12-13T06:13:21.022Z,-2.70
2022-12-13T06:15:50.840Z,-2.70
2022-12-13T06:18:19.500Z,-2.80
2022-12-13T06:20:56.740Z,-2.80
2022-12-13T06:23:25.363Z,-2.70
2022-12-13T06:25:55.419Z,-2.70
2022-12-13T06:28:24.189Z,-2.70
2022-12-13T06:30:53.215Z,-2.70
2022-12-13T06:33:23.320Z,-2.60
2022-12-13T06:35:53.299Z,-2.60
2022-12-13T06:38:22.009Z,-2.60
2022-12-13T06:41:10.668Z,-2.60
2022-12-13T06:43:39.911Z,-2.60
2022-12-13T06:46:08.466Z,-2.50
2022-12-13T06:48:38.346Z,-2.50
2022-12-13T06:51:07.736Z,-2.60
2022-12-13T06:53:37.618Z,-2.50
2022-12-13T06:56:07.101Z,-2.50
2022-12-13T06:58:37.919Z,-2.50
2022-12-13T07:01:14.499Z,-2.40
2022-12-13T07:03:44.540Z,-2.40
2022-12-13T07:06:15.999Z,-2.40
2022-12-13T07:08:46.033Z,-2.40
2022-12-13T07:11:16.805Z,-2.40
2022-12-13T07:13:47.330Z,-2.30
2022-12-13T07:16:16.012Z,-2.30
2022-12-13T07:18:47.690Z,-2.30
2022-12-13T07:21:21.438Z,-2.30
2022-12-13T07:23:55.028Z,-2.20
2022-12-13T07:26:24.257Z,-2.20
2022-12-13T07:28:55.684Z,-2.20
2022-12-13T07:31:25.622Z,-2.20
2022-12-13T07:33:54.129Z,-2.20
2022-12-13T07:36:24.852Z,-2.10
2022-12-13T07:38:54.776Z,-2.10
2022-12-13T07:41:23.917Z,-2.10
2022-12-13T07:43:55.130Z,-2.10
2022-12-13T07:46:33.338Z,-2.10
2022-12-13T07:49:03.206Z,-2.00
2022-12-13T07:51:31.738Z,-2.00
2022-12-13T07:54:00.840Z,-1.90
2022-12-13T07:56:35.110Z,-1.90
2022-12-13T07:59:05.409Z,-1.90
2022-12-13T08:01:34.933Z,-1.90
2022-12-13T08:04:03.873Z,-1.90
2022-12-13T08:06:36.037Z,-1.80
2022-12-13T08:09:05.915Z,-1.80
2022-12-13T08:11:34.670Z,-1.70
2022-12-13T08:14:04.779Z,-1.70
2022-12-13T08:16:33.287Z,-1.80
2022-12-13T08:19:04.590Z,-1.80
2022-12-13T08:24:27.116Z,-1.70
2022-12-13T08:27:01.524Z,-1.70
2022-12-13T08:29:34.006Z,-1.70
2022-12-13T08:32:04.303Z,-1.70
2022-12-13T08:34:32.949Z,-1.60
2022-12-13T08:37:03.541Z,-1.60
2022-12-13T08:39:35.405Z,-1.60
2022-12-13T08:42:16.122Z,-1.60
2022-12-13T08:44:48.168Z,-1.50
2022-12-13T08:47:22.916Z,-1.40
2022-12-13T08:50:02.395Z,-1.30
2022-12-13T08:52:39.390Z,-1.30
2022-12-13T08:55:10.211Z,-1.20
2022-12-13T08:57:38.869Z,-1.10
2022-12-13T09:00:12.379Z,-1.10
2022-12-13T09:02:41.005Z,-1.20
2022-12-13T09:05:11.430Z,-1.10
2022-12-13T09:07:41.245Z,-1.10
2022-12-13T09:10:27.097Z,-1.00
2022-12-13T09:13:01.368Z,-0.80
2022-12-13T09:15:34.995Z,-0.70
2022-12-13T09:18:04.214Z,-0.70
2022-12-13T09:20:41.032Z,-0.70
2022-12-13T09:23:14.291Z,-0.60
2022-12-13T09:26:05.315Z,-0.50
2022-12-13T09:28:36.283Z,-0.50
2022-12-13T09:31:10.095Z,-0.50
2022-12-13T09:33:41.103Z,-0.50
2022-12-13T09:36:13.891Z,-0.50
2022-12-13T09:38:43.195Z,-0.50
2022-12-13T09:41:28.555Z,-0.50
2022-12-13T09:44:02.393Z,-0.50
2022-12-13T09:46:45.116Z,-0.50
2022-12-13T09:49:22.803Z,-0.50
2022-12-13T09:52:21.514Z,-0.50
2022-12-13T09:54:48.654Z,-0.50
2022-12-13T09:57:31.282Z,-0.40
2022-12-13T10:00:02.933Z,-0.40
2022-12-13T10:02:35.052Z,-0.40
2022-12-13T10:05:22.873Z,-0.30
2022-12-13T10:07:55.694Z,-0.20
2022-12-13T10:10:24.232Z,-0.20
2022-12-13T10:12:57.431Z,-0.20
2022-12-13T10:15:27.571Z,-0.30
2022-12-13T10:17:57.691Z,-0.30
2022-12-13T10:20:30.129Z,-0.30
2022-12-13T10:25:51.688Z,-0.20
2022-12-13T10:28:26.427Z,-0.10
2022-12-13T10:30:55.399Z,-0.10
2022-12-13T10:33:28.514Z,0.00
2022-12-13T10:36:19.114Z,0.00
2022-12-13T10:38:50.934Z,0.10
2022-12-13T10:41:34.348Z,0.10
2022-12-13T10:44:25.551Z,0.10
2022-12-13T10:47:07.322Z,0.10
2022-12-13T10:49:42.602Z,0.10
2022-12-13T10:52:30.958Z,0.10
2022-12-13T10:55:04.671Z,0.20
2022-12-13T10:57:53.728Z,0.10
2022-12-13T11:00:49.658Z,0.10
2022-12-13T11:03:32.907Z,0.00
2022-12-13T11:06:08.120Z,-0.10
2022-12-13T11:08:37.098Z,-0.10
2022-12-13T11:11:08.203Z,-0.10
2022-12-13T11:13:40.562Z,-0.10
2022-12-13T11:16:23.186Z,-0.10
2022-12-13T11:18:54.971Z,-0.10
2022-12-13T11:21:28.033Z,0.00
2022-12-13T11:24:01.935Z,0.00
2022-12-13T11:26:33.328Z,0.00
2022-12-13T11:29:37.833Z,0.00
2022-12-13T11:32:23.140Z,0.10
2022-12-13T11:35:02.676Z,0.10
2022-12-13T11:37:42.166Z,0.10
2022-12-13T11:40:16.784Z,0.10
2022-12-13T11:42:49.444Z,0.10
2022-12-13T11:45:22.314Z,0.10
2022-12-13T11:48:00.929Z,0.10
2022-12-13T11:50:35.587Z,0.10
2022-12-13T11:53:27.979Z,0.10
2022-12-13T11:56:02.102Z,0.00
2022-12-13T12:01:38.628Z,0.10
2022-12-13T12:04:15.713Z,0.20
2022-12-13T12:06:50.267Z,0.20
2022-12-13T12:09:24.541Z,0.20
2022-12-13T12:12:00.289Z,0.20
2022-12-13T12:14:39.240Z,0.10
2022-12-13T12:17:07.799Z,0.10
2022-12-13T12:19:40.216Z,0.10
2022-12-13T12:22:23.230Z,0.10
2022-12-13T12:25:05.289Z,0.10
2022-12-13T12:27:43.886Z,0.10
2022-12-13T12:30:23.329Z,0.10
2022-12-13T12:33:04.907Z,0.10
2022-12-13T12:35:52.579Z,0.10
2022-12-13T12:38:37.522Z,0.10
2022-12-13T12:41:25.765Z,0.10
2022-12-13T12:44:03.611Z,0.10
2022-12-13T12:47:08.528Z,0.10
2022-12-13T12:50:04.133Z,0.10
2022-12-13T12:52:45.876Z,0.10
2022-12-13T12:55:21.047Z,0.10
2022-12-13T12:58:05.071Z,0.10
2022-12-13T13:00:42.411Z,0.10
2022-12-13T13:03:22.887Z,0.10
2022-12-13T13:06:01.646Z,0.10
2022-12-13T13:08:36.365Z,0.10
2022-12-13T13:11:25.081Z,0.10
2022-12-13T13:14:06.730Z,0.10
2022-12-13T13:16:40.180Z,0.10
2022-12-13T13:19:48.914Z,0.10
2022-12-13T13:22:32.658Z,0.10
2022-12-13T13:25:31.182Z,0.10
2022-12-13T13:28:07.957Z,0.10
2022-12-13T13:30:37.525Z,0.10
2022-12-13T13:33:26.405Z,0.10
2022-12-13T13:35:56.535Z,0.10
2022-12-13T13:38:44.342Z,0.20
2022-12-13T13:41:41.662Z,0.20
2022-12-13T13:44:49.615Z,0.40
2022-12-13T13:47:30.009Z,0.50
2022-12-13T13:50:04.507Z,0.50
2022-12-13T13:52:46.812Z,0.50
2022-12-13T13:55:40.790Z,0.40
2022-12-13T13:58:41.006Z,0.40
2022-12-13T14:01:40.620Z,0.30
2022-12-13T14:04:58.331Z,0.30
2022-12-13T14:08:01.333Z,0.20
2022-12-13T14:10:54.979Z,0.20
2022-12-13T14:14:04.352Z,0.20
2022-12-13T14:17:19.574Z,0.20
2022-12-13T14:20:21.998Z,0.20
2022-12-13T14:22:59.802Z,0.10
2022-12-13T14:25:52.657Z,0.00
2022-12-13T14:28:47.274Z,-0.10
2022-12-13T14:31:22.103Z,-0.20
2022-12-13T14:33:55.078Z,-0.20
2022-12-13T14:36:27.761Z,-0.40
2022-12-13T14:39:04.459Z,-0.40
2022-12-13T14:41:34.295Z,-0.50
2022-12-13T14:44:24.942Z,-0.50
2022-12-13T14:46:55.815Z,-0.60
2022-12-13T14:49:27.944Z,-0.60
2022-12-13T14:52:01.914Z,-0.70
2022-12-13T14:54:43.550Z,-0.80
2022-12-13T14:57:18.821Z,-0.90
2022-12-13T14:59:50.817Z,-0.90
2022-12-13T15:02:30.043Z,-1.00
2022-12-13T15:05:02.141Z,-1.10
2022-12-13T15:07:36.642Z,-1.20
2022-12-13T15:10:20.088Z,-1.20
2022-12-13T15:12:49.361Z,-1.30
2022-12-13T15:15:24.919Z,-1.30
2022-12-13T15:18:18.288Z,-1.40
2022-12-13T15:20:49.111Z,-1.40
2022-12-13T15:23:24.981Z,-1.50
2022-12-13T15:26:01.079Z,-1.50
2022-12-13T15:28:33.040Z,-1.60
2022-12-13T15:31:04.024Z,-1.50
2022-12-13T15:33:38.049Z,-1.60
2022-12-13T15:36:16.189Z,-1.60
2022-12-13T15:38:52.057Z,-1.70
2022-12-13T15:41:26.480Z,-1.70
2022-12-13T15:43:58.578Z,-1.70
2022-12-13T15:46:29.240Z,-1.70
2022-12-13T15:49:00.040Z,-1.80
2022-12-13T15:51:30.948Z,-1.80
2022-12-13T15:54:06.656Z,-1.80
2022-12-13T15:56:38.890Z,-1.90
2022-12-13T15:59:25.882Z,-1.90
2022-12-13T16:01:58.467Z,-1.90
2022-12-13T16:04:30.043Z,-2.00
2022-12-13T16:06:59.931Z,-2.00
2022-12-13T16:09:31.900Z,-2.10
2022-12-13T16:12:04.049Z,-2.10
2022-12-13T16:14:49.630Z,-2.00
2022-12-13T16:17:26.419Z,-2.00
2022-12-13T16:19:56.629Z,-1.90
2022-12-13T16:22:25.974Z,-1.90
2022-12-13T16:24:56.598Z,-1.80
2022-12-13T16:27:30.343Z,-1.80
2022-12-13T16:29:59.337Z,-1.70
2022-12-13T16:32:28.335Z,-1.70
2022-12-13T16:34:57.443Z,-1.70
2022-12-13T16:37:27.631Z,-1.70
2022-12-13T16:39:57.130Z,-1.70
2022-12-13T16:42:27.531Z,-1.70
2022-12-13T16:45:24.795Z,-1.70
2022-12-13T16:47:49.705Z,-1.70
2022-12-13T16:50:21.373Z,-1.70
2022-12-13T16:52:50.675Z,-1.70
2022-12-13T16:55:20.394Z,-1.70
2022-12-13T16:58:00.740Z,-1.70
2022-12-13T17:00:30.911Z,-1.70
2022-12-13T17:03:01.254Z,-1.70
2022-12-13T17:05:31.254Z,-1.70
2022-12-13T17:08:00.520Z,-1.70
2022-12-13T17:10:29.431Z,-1.80
2022-12-13T17:12:59.831Z,-1.70
2022-12-13T17:15:28.789Z,-1.70
2022-12-13T17:17:59.716Z,-1.70
2022-12-13T17:20:28.710Z,-1.70
2022-12-13T17:22:57.712Z,-1.70
2022-12-13T17:25:26.859Z,-1.70
2022-12-13T17:27:56.819Z,-1.70
2022-12-13T17:30:27.060Z,-1.60
2022-12-13T17:32:59.970Z,-1.60
2022-12-13T17:35:32.550Z,-1.60
2022-12-13T17:38:01.149Z,-1.60
2022-12-13T17:40:30.002Z,-1.70
2022-12-13T17:42:58.650Z,-1.70
2022-12-13T17:45:28.641Z,-1.70
2022-12-13T17:47:57.500Z,-1.70
2022-12-13T17:50:27.141Z,-1.70
2022-12-13T17:52:56.480Z,-1.70
2022-12-13T17:55:25.357Z,-1.70
2022-12-13T17:57:54.677Z,-1.70
2022-12-13T18:00:24.988Z,-1.80
2022-12-13T18:02:55.947Z,-1.70
2022-12-13T18:05:26.371Z,-1.70
2022-12-13T18:07:55.750Z,-1.70
2022-12-13T18:10:29.491Z,-1.80
2022-12-13T18:12:59.343Z,-1.80
2022-12-13T18:15:28.370Z,-1.90
2022-12-13T18:18:15.684Z,-1.90
2022-12-13T18:20:45.741Z,-1.80
2022-12-13T18:23:14.805Z,-1.90
2022-12-13T18:25:43.508Z,-1.90
2022-12-13T18:28:12.799Z,-1.90
2022-12-13T18:30:41.897Z,-1.90
2022-12-13T18:33:12.831Z,-1.90
2022-12-13T18:35:41.741Z,-1.90
2022-12-13T18:38:10.719Z,-2.00
2022-12-13T18:40:39.791Z,-2.00
2022-12-13T18:43:08.589Z,-2.00
2022-12-13T18:45:37.680Z,-2.00
2022-12-13T18:48:07.451Z,-2.00
2022-12-13T18:50:37.828Z,-2.10
2022-12-13T18:53:09.734Z,-2.20
2022-12-13T18:55:38.969Z,-2.20
2022-12-13T18:58:07.992Z,-2.20
2022-12-13T19:00:36.830Z,-2.30
2022-12-13T19:03:06.087Z,-2.30
2022-12-13T19:05:36.645Z,-2.30
2022-12-13T19:08:05.664Z,-2.30
2022-12-13T19:10:34.243Z,-2.40
2022-12-13T19:13:03.800Z,-2.40
2022-12-13T19:15:32.380Z,-2.40
2022-12-13T19:18:01.839Z,-2.30
2022-12-13T19:20:30.360Z,-2.30
2022-12-13T19:23:01.002Z,-2.30
2022-12-13T19:25:29.870Z,-2.30
2022-12-13T19:27:58.679Z,-2.40
2022-12-13T19:30:27.721Z,-2.50
2022-12-13T19:32:56.941Z,-2.50
2022-12-13T19:35:27.620Z,-2.60
2022-12-13T19:37:56.789Z,-2.70
2022-12-13T19:40:27.662Z,-2.70
2022-12-13T19:42:56.823Z,-2.80
2022-12-13T19:45:25.800Z,-2.80
2022-12-13T19:47:54.561Z,-2.90
2022-12-13T19:50:23.368Z,-2.90
2022-12-13T19:52:52.601Z,-3.00
2022-12-13T19:55:21.082Z,-3.00
2022-12-13T19:57:51.080Z,-3.00
2022-12-13T20:00:20.052Z,-3.10
2022-12-13T20:02:49.105Z,-3.10
2022-12-13T20:05:18.846Z,-3.10
2022-12-13T20:07:48.536Z,-3.20
2022-12-13T20:10:17.628Z,-3.20
2022-12-13T20:12:46.420Z,-3.30
2022-12-13T20:15:16.530Z,-3.40
2022-12-13T20:17:45.109Z,-3.40
2022-12-13T20:20:14.090Z,-3.50
2022-12-13T20:22:43.000Z,-3.50
2022-12-13T20:25:12.946Z,-3.50
2022-12-13T20:27:42.239Z,-3.50
2022-12-13T20:30:12.148Z,-3.60
2022-12-13T20:32:42.290Z,-3.70
2022-12-13T20:35:11.981Z,-3.70
2022-12-13T20:37:41.640Z,-3.70
2022-12-13T20:40:11.552Z,-3.80
2022-12-13T20:42:40.701Z,-3.80
2022-12-13T20:45:11.330Z,-3.80
2022-12-13T20:47:41.280Z,-3.80
2022-12-13T20:50:10.740Z,-3.80
2022-12-13T20:52:39.852Z,-3.80
2022-12-13T20:55:09.844Z,-3.90
2022-12-13T20:57:38.706Z,-3.90
2022-12-13T21:00:09.284Z,-4.00
2022-12-13T21:02:44.749Z,-4.00
2022-12-13T21:05:19.075Z,-4.10
2022-12-13T21:08:06.692Z,-4.10
2022-12-13T21:10:38.321Z,-4.10
2022-12-13T21:13:07.273Z,-4.10
2022-12-13T21:15:35.930Z,-4.20
2022-12-13T21:18:06.195Z,-4.20
2022-12-13T21:20:34.997Z,-4.30
2022-12-13T21:23:04.534Z,-4.30
2022-12-13T21:25:34.210Z,-4.40
2022-12-13T21:28:02.902Z,-4.40
2022-12-13T21:30:31.700Z,-4.40
2022-12-13T21:33:00.598Z,-4.50
2022-12-13T21:35:30.629Z,-4.40
2022-12-13T21:38:03.699Z,-4.50
2022-12-13T21:40:34.260Z,-4.50
2022-12-13T21:43:03.001Z,-4.60
2022-12-13T21:45:31.948Z,-4.60
2022-12-13T21:48:00.646Z,-4.60
2022-12-13T21:50:30.500Z,-4.60
2022-12-13T21:52:59.040Z,-4.60
2022-12-13T21:55:38.836Z,-4.60
2022-12-13T21:58:27.543Z,-4.70
2022-12-13T22:00:56.659Z,-4.70
2022-12-13T22:03:25.237Z,-4.70
2022-12-13T22:05:55.431Z,-4.70
2022-12-13T22:08:24.888Z,-4.70
2022-12-13T22:11:13.086Z,-4.70
2022-12-13T22:13:48.641Z,-4.70
2022-12-13T22:16:17.431Z,-4.70
2022-12-13T22:18:46.538Z,-4.70
2022-12-13T22:21:16.499Z,-4.80
2022-12-13T22:23:45.011Z,-4.80
2022-12-13T22:26:13.873Z,-4.80
2022-12-13T22:28:42.790Z,-4.80
2022-12-13T22:31:11.296Z,-4.90
2022-12-13T22:33:39.800Z,-4.90
2022-12-13T22:36:09.059Z,-4.90
2022-12-13T22:38:38.957Z,-4.90
2022-12-13T22:41:08.016Z,-4.90
2022-12-13T22:43:37.190Z,-5.00
2022-12-13T22:46:08.447Z,-5.00
2022-12-13T22:48:37.404Z,-5.00
2022-12-13T22:51:07.120Z,-5.00
2022-12-13T22:53:36.659Z,-5.00
2022-12-13T22:56:08.579Z,-5.00
2022-12-13T22:58:37.864Z,-5.00
2022-12-13T23:01:11.741Z,-5.00
2022-12-13T23:03:41.461Z,-5.10
2022-12-13T23:06:12.759Z,-5.10
2022-12-13T23:08:43.625Z,-5.10
2022-12-13T23:11:32.822Z,-5.20
2022-12-13T23:14:04.350Z,-5.20
2022-12-13T23:16:34.576Z,-5.20
2022-12-13T23:19:32.270Z,-5.20
2022-12-13T23:21:52.821Z,-5.20
2022-12-13T23:24:21.704Z,-5.20
2022-12-13T23:26:51.815Z,-5.20
2022-12-13T23:29:20.598Z,-5.20
2022-12-13T23:31:49.560Z,-5.10
2022-12-13T23:34:18.493Z,-5.10
2022-12-13T23:36:47.376Z,-5.10
2022-12-13T23:39:15.865Z,-5.10
2022-12-13T23:41:44.379Z,-5.10
2022-12-13T23:44:14.389Z,-5.00
2022-12-13T23:46:48.261Z,-5.00
2022-12-13T23:49:17.715Z,-5.00
2022-12-13T23:51:46.180Z,-5.00
2022-12-13T23:54:17.842Z,-5.00
2022-12-13T23:56:46.449Z,-5.00
2022-12-13T23:59:16.325Z,-5.00
